createdAt,value
2019-02-28T00:02:00.252Z,5.50
2019-02-28T00:04:32.806Z,5.93
2019-02-28T00:07:03.117Z,5.90
2019-02-28T00:09:32.957Z,6.00
2019-02-28T00:12:03.010Z,6.17
2019-02-28T00:14:33.734Z,5.40
2019-02-28T00:17:06.218Z,5.63
2019-02-28T00:19:36.107Z,5.57
2019-02-28T00:22:06.001Z,5.67
2019-02-28T00:24:36.232Z,5.57
2019-02-28T00:27:06.456Z,5.50
2019-02-28T00:29:36.276Z,5.97
2019-02-28T00:32:06.196Z,5.70
2019-02-28T00:34:39.019Z,5.70
2019-02-28T00:37:07.806Z,5.90
2019-02-28T00:39:37.893Z,5.40
2019-02-28T00:42:08.232Z,5.33
2019-02-28T00:44:38.069Z,5.50
2019-02-28T00:47:07.867Z,5.90
2019-02-28T00:49:37.870Z,5.30
2019-02-28T00:52:09.093Z,6.23
2019-02-28T00:54:42.979Z,5.00
2019-02-28T00:57:13.593Z,5.33
2019-02-28T00:59:44.453Z,5.50
2019-02-28T01:02:14.280Z,5.13
2019-02-28T01:04:44.862Z,5.47
2019-02-28T01:07:16.213Z,4.47
2019-02-28T01:09:46.402Z,5.03
2019-02-28T01:12:19.343Z,5.13
2019-02-28T01:14:49.109Z,5.53
2019-02-28T01:17:19.412Z,5.07
2019-02-28T01:19:50.063Z,5.33
2019-02-28T01:22:19.952Z,5.43
2019-02-28T01:24:49.807Z,5.63
2019-02-28T01:27:20.871Z,4.50
2019-02-28T01:29:52.083Z,5.27
2019-02-28T01:32:22.001Z,5.10
2019-02-28T01:34:52.599Z,5.57
2019-02-28T01:37:22.481Z,5.70
2019-02-28T01:39:52.393Z,5.97
2019-02-28T01:42:22.786Z,6.00
2019-02-28T01:44:53.538Z,5.83
2019-02-28T01:47:23.408Z,5.33
2019-02-28T01:49:53.807Z,5.47
2019-02-28T01:52:23.977Z,5.27
2019-02-28T01:54:53.769Z,4.67
2019-02-28T01:57:23.611Z,5.10
2019-02-28T01:59:54.701Z,5.30
2019-02-28T02:02:24.657Z,5.67
2019-02-28T02:04:54.932Z,5.53
2019-02-28T02:07:25.529Z,5.40
2019-02-28T02:09:55.342Z,5.60
2019-02-28T02:12:25.194Z,5.63
2019-02-28T02:14:55.560Z,5.60
2019-02-28T02:17:26.022Z,6.40
2019-02-28T02:19:55.810Z,6.23
2019-02-28T02:22:26.642Z,5.23
2019-02-28T02:24:59.428Z,5.00
2019-02-28T02:27:28.796Z,6.80
2019-02-28T02:29:58.641Z,6.03
2019-02-28T02:32:33.851Z,5.40
2019-02-28T02:35:06.302Z,5.90
2019-02-28T02:37:32.375Z,5.53
2019-02-28T02:40:03.529Z,5.83
2019-02-28T02:42:33.460Z,5.73
2019-02-28T02:45:04.772Z,6.33
2019-02-28T02:47:35.269Z,5.90
2019-02-28T02:50:05.268Z,5.70
2019-02-28T02:52:35.137Z,5.50
2019-02-28T02:55:06.006Z,6.00
2019-02-28T02:57:35.859Z,5.60
2019-02-28T03:00:13.401Z,6.17
2019-02-28T03:02:38.719Z,5.87
2019-02-28T03:05:08.694Z,5.77
2019-02-28T03:07:38.707Z,5.20
2019-02-28T03:10:10.459Z,5.13
2019-02-28T03:12:40.331Z,5.30
2019-02-28T03:15:12.407Z,5.80
2019-02-28T03:17:46.603Z,5.20
2019-02-28T03:20:13.779Z,5.30
2019-02-28T03:22:44.340Z,5.13
2019-02-28T03:25:14.868Z,5.40
2019-02-28T03:27:44.993Z,5.43
2019-02-28T03:30:27.791Z,5.70
2019-02-28T03:32:49.517Z,5.43
2019-02-28T03:35:20.119Z,5.97
2019-02-28T03:37:50.587Z,5.23
2019-02-28T03:40:20.469Z,6.40
2019-02-28T03:42:51.655Z,5.70
2019-02-28T03:45:21.581Z,5.63
2019-02-28T03:47:58.280Z,6.57
2019-02-28T03:50:23.671Z,5.73
2019-02-28T03:52:53.577Z,5.83
2019-02-28T03:55:23.488Z,6.57
2019-02-28T03:57:54.123Z,6.50
2019-02-28T04:00:24.249Z,6.27
2019-02-28T04:02:58.460Z,6.40
2019-02-28T04:05:28.111Z,6.37
2019-02-28T04:07:57.687Z,6.50
2019-02-28T04:10:28.551Z,6.47
2019-02-28T04:12:59.150Z,5.90
2019-02-28T04:15:29.006Z,6.33
2019-02-28T04:17:58.787Z,6.10
2019-02-28T04:20:36.104Z,6.17
2019-02-28T04:23:01.958Z,5.90
2019-02-28T04:25:32.608Z,6.30
2019-02-28T04:28:03.373Z,6.27
2019-02-28T04:30:35.019Z,6.43
2019-02-28T04:33:05.891Z,7.27
2019-02-28T04:35:36.494Z,7.83
2019-02-28T04:38:06.566Z,7.73
2019-02-28T04:40:38.197Z,7.50
2019-02-28T04:43:10.091Z,7.73
2019-02-28T04:45:39.615Z,6.53
2019-02-28T04:48:13.896Z,7.03
2019-02-28T04:50:43.103Z,8.47
2019-02-28T04:53:14.349Z,6.97
2019-02-28T04:55:44.224Z,7.37
2019-02-28T04:58:14.043Z,6.43
2019-02-28T05:00:44.954Z,7.03
2019-02-28T05:03:15.442Z,7.40
2019-02-28T05:05:46.905Z,6.03
2019-02-28T05:08:17.926Z,7.13
2019-02-28T05:10:47.795Z,6.93
2019-02-28T05:13:17.586Z,7.70
2019-02-28T05:15:47.913Z,6.90
2019-02-28T05:18:18.367Z,7.87
2019-02-28T05:20:48.287Z,7.40
2019-02-28T05:23:19.060Z,7.40
2019-02-28T05:25:51.852Z,7.43
2019-02-28T05:28:20.509Z,8.20
2019-02-28T05:30:53.767Z,7.27
2019-02-28T05:33:22.577Z,7.40
2019-02-28T05:35:53.431Z,7.67
2019-02-28T05:38:24.037Z,7.27
2019-02-28T05:40:55.483Z,7.33
2019-02-28T05:43:25.639Z,9.00
2019-02-28T05:45:56.430Z,8.17
2019-02-28T05:48:26.241Z,6.97
2019-02-28T05:50:56.048Z,7.10
2019-02-28T05:53:26.208Z,8.13
2019-02-28T05:55:58.838Z,7.33
2019-02-28T05:58:27.707Z,8.07
2019-02-28T06:00:58.385Z,7.83
2019-02-28T06:03:29.504Z,8.23
2019-02-28T06:06:01.168Z,7.23
2019-02-28T06:08:31.614Z,7.07
2019-02-28T06:11:01.746Z,8.23
2019-02-28T06:13:31.801Z,7.53
2019-02-28T06:16:02.622Z,7.10
2019-02-28T06:18:34.225Z,8.40
2019-02-28T06:21:05.680Z,7.60
2019-02-28T06:23:35.473Z,7.87
2019-02-28T06:26:05.355Z,7.40
2019-02-28T06:28:35.169Z,7.70
2019-02-28T06:31:05.701Z,7.60
2019-02-28T06:33:35.997Z,7.33
2019-02-28T06:36:05.878Z,7.07
2019-02-28T06:38:35.757Z,7.63
2019-02-28T06:41:07.602Z,7.80
2019-02-28T06:43:38.575Z,7.30
2019-02-28T06:46:09.408Z,6.37
2019-02-28T06:48:39.538Z,6.43
2019-02-28T06:51:10.599Z,6.77
2019-02-28T06:53:42.131Z,7.37
2019-02-28T06:56:12.716Z,7.20
2019-02-28T06:58:42.975Z,6.67
2019-02-28T07:01:13.699Z,6.40
2019-02-28T07:03:53.007Z,7.00
2019-02-28T07:06:15.085Z,6.50
2019-02-28T07:08:45.514Z,6.47
2019-02-28T07:11:19.943Z,7.00
2019-02-28T07:13:48.493Z,6.63
2019-02-28T07:16:18.678Z,6.50
2019-02-28T07:18:52.582Z,7.10
2019-02-28T07:21:20.641Z,7.20
2019-02-28T07:23:50.487Z,7.17
2019-02-28T07:26:21.812Z,6.80
2019-02-28T07:28:52.067Z,6.43
2019-02-28T07:31:24.721Z,7.00
2019-02-28T07:33:55.439Z,7.33
2019-02-28T07:36:25.265Z,7.77
2019-02-28T07:38:55.075Z,7.30
2019-02-28T07:41:26.770Z,7.50
2019-02-28T07:43:59.014Z,5.77
2019-02-28T07:46:29.108Z,6.63
2019-02-28T07:49:00.920Z,6.60
2019-02-28T07:51:31.162Z,6.57
2019-02-28T07:54:01.644Z,6.70
2019-02-28T07:56:32.270Z,7.07
2019-02-28T07:59:05.289Z,6.20
2019-02-28T08:01:34.459Z,6.20
2019-02-28T08:04:05.287Z,6.07
2019-02-28T08:06:36.367Z,7.10
2019-02-28T08:09:29.600Z,6.27
2019-02-28T08:12:01.611Z,6.63
2019-02-28T08:14:31.410Z,6.03
2019-02-28T08:17:01.238Z,5.77
2019-02-28T08:19:31.849Z,7.40
2019-02-28T08:22:01.703Z,6.50
2019-02-28T08:24:35.808Z,5.90
2019-02-28T08:27:04.592Z,6.77
2019-02-28T08:29:34.399Z,5.60
2019-02-28T08:32:08.011Z,6.63
2019-02-28T08:34:36.849Z,7.43
2019-02-28T08:37:06.740Z,6.70
2019-02-28T08:39:37.436Z,7.13
2019-02-28T08:42:07.751Z,7.10
2019-02-28T08:44:37.547Z,6.77
2019-02-28T08:47:07.882Z,7.87
2019-02-28T08:49:42.164Z,7.50
2019-02-28T08:52:09.860Z,8.87
2019-02-28T08:54:40.108Z,8.33
2019-02-28T08:57:10.277Z,8.43
2019-02-28T08:59:40.371Z,8.90
2019-02-28T09:02:10.300Z,8.80
2019-02-28T09:04:44.688Z,8.77
2019-02-28T09:07:15.187Z,8.93
2019-02-28T09:09:44.382Z,8.70
2019-02-28T09:12:14.304Z,8.90
2019-02-28T09:14:44.164Z,10.37
2019-02-28T09:17:15.532Z,9.00
2019-02-28T09:19:45.625Z,8.77
2019-02-28T09:22:15.564Z,10.23
2019-02-28T09:24:46.835Z,10.43
2019-02-28T09:27:17.600Z,9.80
2019-02-28T09:29:47.401Z,10.17
2019-02-28T09:32:17.634Z,9.90
2019-02-28T09:34:48.106Z,11.17
2019-02-28T09:37:17.949Z,10.57
2019-02-28T09:39:51.218Z,10.70
2019-02-28T09:42:20.495Z,10.60
2019-02-28T09:44:50.253Z,11.50
2019-02-28T09:47:20.383Z,10.53
2019-02-28T09:50:08.103Z,10.07
2019-02-28T09:52:41.717Z,10.40
2019-02-28T09:55:10.524Z,11.13
2019-02-28T09:57:40.441Z,12.90
2019-02-28T10:00:13.362Z,12.33
2019-02-28T10:02:43.925Z,11.70
2019-02-28T10:05:15.628Z,11.03
2019-02-28T10:07:45.465Z,9.97
2019-02-28T10:10:21.078Z,11.57
2019-02-28T10:12:49.910Z,10.43
2019-02-28T10:15:20.718Z,10.40
2019-02-28T10:17:50.530Z,12.50
2019-02-28T10:20:26.834Z,11.00
2019-02-28T10:22:54.747Z,10.00
2019-02-28T10:25:24.964Z,11.50
2019-02-28T10:27:55.127Z,10.50
2019-02-28T10:30:31.589Z,10.70
2019-02-28T10:32:56.465Z,11.23
2019-02-28T10:35:27.063Z,10.93
2019-02-28T10:37:58.472Z,10.70
2019-02-28T10:40:29.496Z,10.87
2019-02-28T10:42:59.426Z,9.87
2019-02-28T10:45:29.346Z,11.23
2019-02-28T10:48:03.035Z,11.53
2019-02-28T10:50:33.368Z,10.23
2019-02-28T10:53:05.762Z,10.43
2019-02-28T10:55:35.877Z,9.97
2019-02-28T10:58:05.841Z,11.07
2019-02-28T11:00:36.943Z,10.57
2019-02-28T11:03:06.808Z,11.07
2019-02-28T11:05:37.071Z,10.67
2019-02-28T11:08:09.660Z,10.57
2019-02-28T11:10:40.327Z,10.03
2019-02-28T11:13:15.649Z,9.87
2019-02-28T11:15:48.338Z,10.00
2019-02-28T11:18:17.154Z,10.03
2019-02-28T11:20:47.333Z,10.27
2019-02-28T11:23:17.270Z,9.80
2019-02-28T11:25:47.296Z,9.93
2019-02-28T11:28:17.787Z,11.60
2019-02-28T11:30:48.004Z,9.67
2019-02-28T11:33:18.032Z,9.57
2019-02-28T11:35:48.354Z,9.13
2019-02-28T11:38:21.531Z,9.63
2019-02-28T11:40:57.074Z,9.03
2019-02-28T11:43:21.690Z,9.57
2019-02-28T11:45:51.567Z,8.87
2019-02-28T11:48:21.973Z,9.07
2019-02-28T11:50:52.329Z,9.40
2019-02-28T11:53:22.167Z,9.07
2019-02-28T11:55:53.259Z,10.50
2019-02-28T11:58:24.283Z,10.40
2019-02-28T12:00:55.352Z,9.80
2019-02-28T12:03:26.501Z,10.13
2019-02-28T12:05:56.934Z,9.70
2019-02-28T12:08:26.814Z,9.23
2019-02-28T12:10:58.437Z,9.53
2019-02-28T12:13:28.867Z,8.03
2019-02-28T12:15:58.647Z,9.93
2019-02-28T12:18:28.985Z,9.30
2019-02-28T12:21:02.033Z,8.47
2019-02-28T12:23:30.536Z,9.47
2019-02-28T12:26:00.324Z,8.77
2019-02-28T12:28:30.937Z,8.20
2019-02-28T12:31:01.125Z,8.57
2019-02-28T12:33:31.152Z,7.80
2019-02-28T12:36:01.053Z,8.07
2019-02-28T12:38:31.755Z,9.30
2019-02-28T12:41:01.692Z,8.53
2019-02-28T12:43:31.904Z,8.23
2019-02-28T12:46:02.409Z,7.73
2019-02-28T12:48:32.266Z,9.07
2019-02-28T12:51:05.098Z,8.33
2019-02-28T12:53:34.320Z,7.70
2019-02-28T12:56:04.589Z,8.83
2019-02-28T12:58:38.673Z,8.53
2019-02-28T13:01:07.498Z,8.63
2019-02-28T13:03:37.306Z,8.50
2019-02-28T13:06:07.133Z,7.47
2019-02-28T13:08:38.702Z,7.83
2019-02-28T13:11:09.403Z,7.67
2019-02-28T13:13:39.309Z,7.83
2019-02-28T13:16:09.748Z,8.27
2019-02-28T13:18:43.269Z,8.63
2019-02-28T13:21:11.723Z,7.63
2019-02-28T13:23:42.499Z,8.43
2019-02-28T13:26:12.365Z,7.60
2019-02-28T13:28:43.495Z,8.07
2019-02-28T13:31:14.243Z,8.03
2019-02-28T13:33:48.658Z,8.20
2019-02-28T13:36:21.617Z,7.17
2019-02-28T13:38:54.681Z,6.83
2019-02-28T13:41:26.584Z,7.33
2019-02-28T13:43:58.598Z,7.07
2019-02-28T13:46:32.347Z,7.57
2019-02-28T13:48:57.710Z,7.20
2019-02-28T13:51:27.620Z,7.27
2019-02-28T13:53:57.431Z,6.87
2019-02-28T13:56:29.052Z,6.77
2019-02-28T13:58:58.902Z,7.50
2019-02-28T14:01:29.041Z,7.23
2019-02-28T14:03:59.322Z,7.20
2019-02-28T14:06:29.171Z,7.57
2019-02-28T14:09:00.632Z,7.47
2019-02-28T14:11:31.057Z,7.70
2019-02-28T14:14:01.852Z,7.40
2019-02-28T14:16:31.763Z,8.00
2019-02-28T14:19:01.964Z,7.70
2019-02-28T14:21:34.387Z,7.30
2019-02-28T14:24:03.830Z,8.03
2019-02-28T14:26:42.384Z,8.30
2019-02-28T14:29:07.032Z,8.00
2019-02-28T14:31:39.087Z,8.37
2019-02-28T14:34:08.893Z,8.77
2019-02-28T14:36:41.804Z,7.80
2019-02-28T14:39:12.829Z,8.60
2019-02-28T14:41:42.735Z,8.20
2019-02-28T14:44:12.519Z,8.17
2019-02-28T14:46:42.333Z,9.17
2019-02-28T14:49:13.485Z,8.40
2019-02-28T14:51:43.476Z,9.57
2019-02-28T14:54:13.535Z,9.00
2019-02-28T14:56:43.452Z,9.73
2019-02-28T14:59:13.542Z,8.43
2019-02-28T15:01:43.503Z,8.23
2019-02-28T15:04:13.293Z,8.10
2019-02-28T15:06:53.957Z,8.47
2019-02-28T15:09:27.037Z,7.97
2019-02-28T15:11:57.002Z,8.83
2019-02-28T15:14:26.964Z,7.00
2019-02-28T15:16:56.823Z,7.90
2019-02-28T15:19:28.519Z,8.53
2019-02-28T15:21:58.167Z,8.47
2019-02-28T15:24:27.953Z,7.03
2019-02-28T15:26:57.833Z,7.20
2019-02-28T15:29:28.272Z,8.00
2019-02-28T15:31:58.086Z,7.33
2019-02-28T15:34:27.940Z,7.90
2019-02-28T15:36:59.430Z,7.10
2019-02-28T15:39:29.262Z,8.07
2019-02-28T15:41:59.117Z,6.80
2019-02-28T15:44:30.176Z,7.07
2019-02-28T15:47:01.743Z,8.10
2019-02-28T15:49:31.564Z,6.73
2019-02-28T15:52:01.837Z,7.97
2019-02-28T15:54:33.577Z,7.90
2019-02-28T15:57:04.171Z,7.70
2019-02-28T15:59:34.505Z,7.57
2019-02-28T16:02:06.313Z,7.63
2019-02-28T16:04:37.426Z,8.93
2019-02-28T16:07:09.303Z,8.47
2019-02-28T16:09:39.237Z,8.17
2019-02-28T16:12:09.123Z,7.03
2019-02-28T16:14:38.945Z,8.07
2019-02-28T16:17:08.809Z,8.17
2019-02-28T16:19:38.609Z,8.13
2019-02-28T16:22:09.747Z,7.73
2019-02-28T16:24:39.841Z,8.97
2019-02-28T16:27:10.728Z,7.53
2019-02-28T16:29:41.017Z,8.67
2019-02-28T16:32:14.213Z,8.93
2019-02-28T16:34:43.333Z,8.90
2019-02-28T16:37:13.460Z,8.87
2019-02-28T16:39:44.369Z,10.20
2019-02-28T16:42:14.249Z,7.63
2019-02-28T16:44:44.484Z,8.67
2019-02-28T16:47:15.356Z,8.60
2019-02-28T16:49:45.356Z,8.50
2019-02-28T16:52:40.701Z,9.70
2019-02-28T16:55:09.745Z,7.40
2019-02-28T16:57:40.237Z,9.30
2019-02-28T17:00:10.586Z,8.87
2019-02-28T17:02:40.679Z,7.70
2019-02-28T17:05:10.577Z,8.90
2019-02-28T17:07:43.333Z,8.63
2019-02-28T17:10:14.697Z,8.20
2019-02-28T17:13:05.082Z,9.23
2019-02-28T17:15:55.827Z,8.70
2019-02-28T17:18:26.017Z,7.83
2019-02-28T17:20:56.378Z,8.77
2019-02-28T17:23:26.340Z,9.13
2019-02-28T17:25:56.489Z,8.30
2019-02-28T17:28:46.626Z,9.20
2019-02-28T17:31:37.881Z,8.37
2019-02-28T17:34:09.564Z,8.50
2019-02-28T17:36:39.451Z,8.10
2019-02-28T17:39:11.365Z,8.17
2019-02-28T17:41:43.412Z,8.77
2019-02-28T17:44:43.463Z,8.60
2019-02-28T17:47:54.012Z,7.67
2019-02-28T17:50:31.993Z,7.83
2019-02-28T17:53:29.067Z,8.63
2019-02-28T17:56:45.570Z,9.10
2019-02-28T18:00:09.094Z,7.47
2019-02-28T18:03:00.028Z,8.37
2019-02-28T18:05:55.319Z,8.30
2019-02-28T18:08:46.929Z,7.53
2019-02-28T18:12:01.421Z,7.37
2019-02-28T18:14:59.890Z,7.80
2019-02-28T18:17:56.542Z,8.63
2019-02-28T18:21:04.507Z,9.23
2019-02-28T18:24:04.276Z,8.87
2019-02-28T18:27:01.843Z,9.17
2019-02-28T18:30:13.594Z,8.27
2019-02-28T18:32:44.950Z,8.73
2019-02-28T18:35:16.310Z,9.03
2019-02-28T18:37:46.712Z,9.13
2019-02-28T18:40:16.957Z,8.30
2019-02-28T18:42:46.843Z,8.53
2019-02-28T18:45:19.107Z,10.83
2019-02-28T18:47:49.920Z,8.90
2019-02-28T18:50:19.969Z,7.73
2019-02-28T18:52:52.066Z,9.73
2019-02-28T18:55:22.695Z,8.13
2019-02-28T18:57:53.635Z,9.27
2019-02-28T19:00:24.695Z,8.50
2019-02-28T19:02:54.889Z,8.93
2019-02-28T19:05:25.920Z,8.67
2019-02-28T19:07:57.219Z,8.63
2019-02-28T19:10:27.086Z,9.17
2019-02-28T19:12:57.572Z,9.20
2019-02-28T19:15:28.601Z,8.30
2019-02-28T19:17:58.889Z,9.67
2019-02-28T19:20:29.146Z,8.37
2019-02-28T19:23:00.683Z,8.73
2019-02-28T19:25:30.889Z,8.77
2019-02-28T19:28:02.136Z,8.77
2019-02-28T19:30:37.604Z,8.83
2019-02-28T19:33:07.890Z,9.27
2019-02-28T19:35:39.760Z,9.23
2019-02-28T19:38:11.767Z,8.50
2019-02-28T19:40:42.349Z,9.00
2019-02-28T19:43:12.982Z,9.10
2019-02-28T19:45:45.072Z,7.43
2019-02-28T19:48:15.578Z,7.50
2019-02-28T19:50:46.031Z,5.67
2019-02-28T19:53:16.331Z,5.47
2019-02-28T19:55:49.113Z,5.67
2019-02-28T19:58:21.885Z,5.70
2019-02-28T20:00:52.124Z,5.10
2019-02-28T20:03:22.999Z,5.00
2019-02-28T20:05:54.136Z,3.93
2019-02-28T20:08:24.429Z,4.93
2019-02-28T20:10:54.668Z,4.90
2019-02-28T20:13:25.609Z,4.43
2019-02-28T20:15:56.111Z,4.20
2019-02-28T20:18:26.185Z,3.83
2019-02-28T20:20:57.133Z,4.63
2019-02-28T20:23:27.359Z,4.10
2019-02-28T20:25:59.050Z,4.13
2019-02-28T20:28:29.595Z,4.23
2019-02-28T20:30:59.872Z,3.93
2019-02-28T20:33:30.419Z,3.77
2019-02-28T20:36:00.465Z,3.90
2019-02-28T20:38:30.995Z,4.20
2019-02-28T20:41:01.674Z,4.27
2019-02-28T20:43:31.897Z,4.37
2019-02-28T20:46:01.886Z,4.43
2019-02-28T20:48:33.093Z,4.63
2019-02-28T20:51:03.375Z,3.70
2019-02-28T20:53:33.179Z,3.87
2019-02-28T20:56:03.676Z,3.83
2019-02-28T20:58:34.803Z,4.40
2019-02-28T21:01:05.369Z,4.50
2019-02-28T21:03:36.456Z,4.30
2019-02-28T21:06:06.603Z,4.13
2019-02-28T21:08:37.105Z,4.23
2019-02-28T21:11:07.541Z,3.87
2019-02-28T21:13:37.813Z,3.63
2019-02-28T21:16:07.709Z,3.30
2019-02-28T21:18:38.879Z,3.27
2019-02-28T21:21:08.803Z,3.93
2019-02-28T21:23:38.866Z,3.27
2019-02-28T21:26:09.193Z,3.53
2019-02-28T21:28:39.290Z,3.80
2019-02-28T21:31:10.355Z,3.07
2019-02-28T21:33:41.212Z,3.47
2019-02-28T21:36:11.145Z,2.90
2019-02-28T21:38:40.981Z,3.20
2019-02-28T21:41:10.934Z,3.40
2019-02-28T21:43:41.633Z,2.30
2019-02-28T21:46:11.488Z,2.70
2019-02-28T21:48:41.779Z,3.03
2019-02-28T21:51:12.676Z,2.30
2019-02-28T21:53:43.643Z,3.63
2019-02-28T21:56:13.931Z,3.43
2019-02-28T21:58:44.931Z,2.97
2019-02-28T22:01:14.773Z,2.70
2019-02-28T22:03:45.155Z,2.93
2019-02-28T22:06:15.412Z,2.93
2019-02-28T22:08:45.216Z,3.87
2019-02-28T22:11:15.089Z,3.33
2019-02-28T22:13:44.892Z,4.17
2019-02-28T22:16:15.424Z,4.63
2019-02-28T22:18:45.419Z,3.97
2019-02-28T22:21:15.294Z,4.00
2019-02-28T22:23:45.123Z,5.13
2019-02-28T22:26:15.043Z,4.83
2019-02-28T22:28:45.131Z,4.60
2019-02-28T22:31:26.492Z,4.47
2019-02-28T22:34:03.336Z,5.03
2019-02-28T22:36:37.061Z,5.03
2019-02-28T22:39:07.345Z,5.00
2019-02-28T22:41:38.281Z,5.37
2019-02-28T22:44:08.694Z,5.13
2019-02-28T22:46:39.052Z,5.27
2019-02-28T22:49:09.179Z,5.50
2019-02-28T22:51:39.945Z,5.10
2019-02-28T22:54:09.742Z,5.40
2019-02-28T22:56:39.691Z,5.27
2019-02-28T22:59:09.690Z,4.83
2019-02-28T23:01:39.738Z,4.97
2019-02-28T23:04:10.429Z,4.67
2019-02-28T23:06:40.313Z,4.63
2019-02-28T23:09:10.102Z,4.47
2019-02-28T23:11:40.131Z,4.20
2019-02-28T23:14:10.833Z,4.57
2019-02-28T23:16:40.705Z,4.13
2019-02-28T23:19:10.741Z,3.83
2019-02-28T23:21:41.190Z,3.20
2019-02-28T23:24:10.996Z,3.70
2019-02-28T23:27:11.759Z,3.73
2019-02-28T23:29:48.743Z,3.17
2019-02-28T23:32:43.395Z,3.47
2019-02-28T23:35:17.513Z,3.10
2019-02-28T23:37:47.343Z,3.03
2019-02-28T23:40:17.455Z,3.20
2019-02-28T23:42:47.686Z,3.07
2019-02-28T23:45:17.614Z,3.17
2019-02-28T23:47:48.366Z,3.03
2019-02-28T23:50:18.168Z,3.00
2019-02-28T23:52:48.009Z,3.30
2019-02-28T23:55:17.888Z,2.70
2019-02-28T23:57:49.112Z,2.87
